sensor_id;sensor_type;location;lat;lon;timestamp;P1;durP1;ratioP1;P2;durP2;ratioP2
59366;SDS011;45163;47.690;11.770;2022-09-09T00:01:21;1.50;;;1.10;;
59366;SDS011;45163;47.690;11.770;2022-09-09T00:04:12;2.30;;;1.10;;
59366;SDS011;45163;47.690;11.770;2022-09-09T00:06:45;4.37;;;1.40;;
59366;SDS011;45163;47.690;11.770;2022-09-09T00:09:31;3.23;;;1.23;;
59366;SDS011;45163;47.690;11.770;2022-09-09T00:12:15;1.00;;;1.00;;
59366;SDS011;45163;47.690;11.770;2022-09-09T00:15:32;3.17;;;1.50;;
59366;SDS011;45163;47.690;11.770;2022-09-09T00:21:02;1.40;;;1.30;;
59366;SDS011;45163;47.690;11.770;2022-09-09T00:23:39;1.50;;;1.17;;
59366;SDS011;45163;47.690;11.770;2022-09-09T00:26:13;1.40;;;1.10;;
59366;SDS011;45163;47.690;11.770;2022-09-09T00:31:30;1.70;;;1.20;;
59366;SDS011;45163;47.690;11.770;2022-09-09T00:33:58;2.50;;;1.30;;
59366;SDS011;45163;47.690;11.770;2022-09-09T00:36:30;2.57;;;1.47;;
59366;SDS011;45163;47.690;11.770;2022-09-09T00:39:00;5.70;;;1.60;;
59366;SDS011;45163;47.690;11.770;2022-09-09T00:57:51;2.17;;;1.37;;
59366;SDS011;45163;47.690;11.770;2022-09-09T01:10:50;2.73;;;1.40;;
59366;SDS011;45163;47.690;11.770;2022-09-09T01:13:24;6.87;;;1.50;;
59366;SDS011;45163;47.690;11.770;2022-09-09T01:15:56;1.63;;;1.40;;
59366;SDS011;45163;47.690;11.770;2022-09-09T01:18:39;1.70;;;1.50;;
59366;SDS011;45163;47.690;11.770;2022-09-09T01:27:04;1.53;;;1.43;;
59366;SDS011;45163;47.690;11.770;2022-09-09T01:29:32;2.20;;;1.50;;
59366;SDS011;45163;47.690;11.770;2022-09-09T01:35:21;6.30;;;2.00;;
59366;SDS011;45163;47.690;11.770;2022-09-09T01:38:08;5.83;;;2.27;;
59366;SDS011;45163;47.690;11.770;2022-09-09T01:40:34;3.17;;;1.70;;
59366;SDS011;45163;47.690;11.770;2022-09-09T01:43:07;2.23;;;1.67;;
59366;SDS011;45163;47.690;11.770;2022-09-09T01:45:33;3.83;;;1.87;;
59366;SDS011;45163;47.690;11.770;2022-09-09T01:47:59;2.47;;;1.63;;
59366;SDS011;45163;47.690;11.770;2022-09-09T01:50:26;2.87;;;1.70;;
59366;SDS011;45163;47.690;11.770;2022-09-09T01:52:53;2.53;;;1.80;;
59366;SDS011;45163;47.690;11.770;2022-09-09T01:55:32;1.93;;;1.40;;
59366;SDS011;45163;47.690;11.770;2022-09-09T02:00:47;3.20;;;1.77;;
59366;SDS011;45163;47.690;11.770;2022-09-09T02:03:34;3.73;;;2.00;;
59366;SDS011;45163;47.690;11.770;2022-09-09T02:08:36;4.47;;;1.83;;
59366;SDS011;45163;47.690;11.770;2022-09-09T02:11:21;1.50;;;1.40;;
59366;SDS011;45163;47.690;11.770;2022-09-09T02:13:51;2.10;;;1.70;;
59366;SDS011;45163;47.690;11.770;2022-09-09T02:16:28;5.50;;;1.50;;
59366;SDS011;45163;47.690;11.770;2022-09-09T02:21:38;1.83;;;1.57;;
59366;SDS011;45163;47.690;11.770;2022-09-09T02:24:08;3.93;;;1.40;;
59366;SDS011;45163;47.690;11.770;2022-09-09T02:26:38;4.27;;;1.43;;
59366;SDS011;45163;47.690;11.770;2022-09-09T02:29:20;1.90;;;1.50;;
59366;SDS011;45163;47.690;11.770;2022-09-09T02:31:50;2.87;;;1.70;;
59366;SDS011;45163;47.690;11.770;2022-09-09T02:34:20;1.70;;;1.60;;
59366;SDS011;45163;47.690;11.770;2022-09-09T02:36:49;2.70;;;1.50;;
59366;SDS011;45163;47.690;11.770;2022-09-09T02:39:18;1.87;;;1.53;;
59366;SDS011;45163;47.690;11.770;2022-09-09T02:41:45;2.80;;;1.50;;
59366;SDS011;45163;47.690;11.770;2022-09-09T02:44:11;5.20;;;1.50;;
59366;SDS011;45163;47.690;11.770;2022-09-09T02:49:47;3.37;;;1.60;;
59366;SDS011;45163;47.690;11.770;2022-09-09T02:52:17;4.17;;;1.53;;
59366;SDS011;45163;47.690;11.770;2022-09-09T02:54:46;3.73;;;2.03;;
59366;SDS011;45163;47.690;11.770;2022-09-09T02:57:25;1.63;;;1.50;;
59366;SDS011;45163;47.690;11.770;2022-09-09T02:59:53;4.70;;;1.40;;
59366;SDS011;45163;47.690;11.770;2022-09-09T03:02:23;1.60;;;1.33;;
59366;SDS011;45163;47.690;11.770;2022-09-09T03:04:50;1.70;;;1.33;;
59366;SDS011;45163;47.690;11.770;2022-09-09T03:07:18;3.43;;;1.50;;
59366;SDS011;45163;47.690;11.770;2022-09-09T03:09:44;5.27;;;1.47;;
59366;SDS011;45163;47.690;11.770;2022-09-09T03:12:11;3.40;;;1.60;;
59366;SDS011;45163;47.690;11.770;2022-09-09T03:14:37;2.17;;;1.40;;
59366;SDS011;45163;47.690;11.770;2022-09-09T03:17:07;3.10;;;1.70;;
59366;SDS011;45163;47.690;11.770;2022-09-09T03:19:34;5.13;;;1.70;;
59366;SDS011;45163;47.690;11.770;2022-09-09T03:22:01;2.07;;;1.27;;
59366;SDS011;45163;47.690;11.770;2022-09-09T03:24:30;5.03;;;1.50;;
59366;SDS011;45163;47.690;11.770;2022-09-09T03:26:55;2.53;;;1.50;;
59366;SDS011;45163;47.690;11.770;2022-09-09T03:29:21;2.93;;;1.57;;
59366;SDS011;45163;47.690;11.770;2022-09-09T03:31:47;2.10;;;1.40;;
59366;SDS011;45163;47.690;11.770;2022-09-09T03:34:13;2.83;;;1.50;;
59366;SDS011;45163;47.690;11.770;2022-09-09T03:36:39;2.77;;;1.60;;
59366;SDS011;45163;47.690;11.770;2022-09-09T03:39:06;6.00;;;1.57;;
59366;SDS011;45163;47.690;11.770;2022-09-09T03:41:32;2.00;;;1.40;;
59366;SDS011;45163;47.690;11.770;2022-09-09T03:43:59;2.43;;;1.67;;
59366;SDS011;45163;47.690;11.770;2022-09-09T03:46:25;3.53;;;1.50;;
59366;SDS011;45163;47.690;11.770;2022-09-09T03:48:52;2.63;;;1.60;;
59366;SDS011;45163;47.690;11.770;2022-09-09T03:51:18;2.27;;;1.50;;
59366;SDS011;45163;47.690;11.770;2022-09-09T03:53:45;1.73;;;1.40;;
59366;SDS011;45163;47.690;11.770;2022-09-09T03:56:11;4.07;;;1.40;;
59366;SDS011;45163;47.690;11.770;2022-09-09T03:58:37;1.30;;;1.20;;
59366;SDS011;45163;47.690;11.770;2022-09-09T04:01:04;1.40;;;1.30;;
59366;SDS011;45163;47.690;11.770;2022-09-09T04:03:34;1.60;;;1.40;;
59366;SDS011;45163;47.690;11.770;2022-09-09T04:06:01;1.63;;;1.30;;
59366;SDS011;45163;47.690;11.770;2022-09-09T04:08:29;3.03;;;1.63;;
59366;SDS011;45163;47.690;11.770;2022-09-09T04:10:58;2.10;;;1.40;;
59366;SDS011;45163;47.690;11.770;2022-09-09T04:13:25;1.97;;;1.33;;
59366;SDS011;45163;47.690;11.770;2022-09-09T04:15:52;2.90;;;1.30;;
59366;SDS011;45163;47.690;11.770;2022-09-09T04:18:22;3.60;;;1.37;;
59366;SDS011;45163;47.690;11.770;2022-09-09T04:20:49;2.57;;;1.17;;
59366;SDS011;45163;47.690;11.770;2022-09-09T04:23:16;3.20;;;1.30;;
59366;SDS011;45163;47.690;11.770;2022-09-09T04:25:45;3.27;;;1.50;;
59366;SDS011;45163;47.690;11.770;2022-09-09T04:28:13;2.87;;;1.40;;
59366;SDS011;45163;47.690;11.770;2022-09-09T04:30:40;2.93;;;1.63;;
59366;SDS011;45163;47.690;11.770;2022-09-09T04:33:06;3.13;;;1.60;;
59366;SDS011;45163;47.690;11.770;2022-09-09T04:35:33;2.43;;;1.30;;
59366;SDS011;45163;47.690;11.770;2022-09-09T04:37:59;1.83;;;1.50;;
59366;SDS011;45163;47.690;11.770;2022-09-09T04:40:25;2.43;;;1.80;;
59366;SDS011;45163;47.690;11.770;2022-09-09T04:42:51;3.60;;;1.53;;
59366;SDS011;45163;47.690;11.770;2022-09-09T04:45:17;4.27;;;1.63;;
59366;SDS011;45163;47.690;11.770;2022-09-09T04:47:44;4.47;;;1.77;;
59366;SDS011;45163;47.690;11.770;2022-09-09T04:50:09;5.50;;;1.80;;
59366;SDS011;45163;47.690;11.770;2022-09-09T04:52:35;2.90;;;1.50;;
59366;SDS011;45163;47.690;11.770;2022-09-09T04:55:01;6.33;;;1.53;;
59366;SDS011;45163;47.690;11.770;2022-09-09T04:57:28;2.70;;;1.60;;
59366;SDS011;45163;47.690;11.770;2022-09-09T04:59:54;2.90;;;1.50;;
59366;SDS011;45163;47.690;11.770;2022-09-09T05:02:20;1.93;;;1.47;;
59366;SDS011;45163;47.690;11.770;2022-09-09T05:04:46;3.37;;;1.50;;
59366;SDS011;45163;47.690;11.770;2022-09-09T05:07:12;3.33;;;1.47;;
59366;SDS011;45163;47.690;11.770;2022-09-09T05:09:40;3.13;;;1.40;;
59366;SDS011;45163;47.690;11.770;2022-09-09T05:12:06;4.67;;;1.90;;
59366;SDS011;45163;47.690;11.770;2022-09-09T05:14:32;2.87;;;1.70;;
59366;SDS011;45163;47.690;11.770;2022-09-09T05:16:58;1.87;;;1.43;;
59366;SDS011;45163;47.690;11.770;2022-09-09T05:19:24;3.00;;;1.50;;
59366;SDS011;45163;47.690;11.770;2022-09-09T05:21:50;2.50;;;1.50;;
59366;SDS011;45163;47.690;11.770;2022-09-09T05:24:19;3.23;;;1.70;;
59366;SDS011;45163;47.690;11.770;2022-09-09T05:26:45;2.40;;;1.60;;
59366;SDS011;45163;47.690;11.770;2022-09-09T05:29:11;2.73;;;1.70;;
59366;SDS011;45163;47.690;11.770;2022-09-09T05:31:37;2.67;;;1.47;;
59366;SDS011;45163;47.690;11.770;2022-09-09T05:34:03;2.13;;;1.33;;
59366;SDS011;45163;47.690;11.770;2022-09-09T05:36:29;3.30;;;1.50;;
59366;SDS011;45163;47.690;11.770;2022-09-09T05:38:54;2.70;;;1.53;;
59366;SDS011;45163;47.690;11.770;2022-09-09T05:41:21;3.17;;;1.53;;
59366;SDS011;45163;47.690;11.770;2022-09-09T05:43:48;4.20;;;1.80;;
59366;SDS011;45163;47.690;11.770;2022-09-09T05:46:18;5.03;;;1.90;;
59366;SDS011;45163;47.690;11.770;2022-09-09T05:48:46;5.37;;;1.87;;
59366;SDS011;45163;47.690;11.770;2022-09-09T05:51:14;2.57;;;1.50;;
59366;SDS011;45163;47.690;11.770;2022-09-09T05:53:43;7.60;;;1.87;;
59366;SDS011;45163;47.690;11.770;2022-09-09T05:56:11;3.93;;;1.70;;
59366;SDS011;45163;47.690;11.770;2022-09-09T05:58:41;2.37;;;1.50;;
59366;SDS011;45163;47.690;11.770;2022-09-09T06:01:11;3.03;;;2.07;;
59366;SDS011;45163;47.690;11.770;2022-09-09T06:03:39;2.80;;;1.40;;
59366;SDS011;45163;47.690;11.770;2022-09-09T06:06:07;2.73;;;1.70;;
59366;SDS011;45163;47.690;11.770;2022-09-09T06:08:35;2.10;;;1.50;;
59366;SDS011;45163;47.690;11.770;2022-09-09T06:11:04;5.33;;;1.80;;
59366;SDS011;45163;47.690;11.770;2022-09-09T06:13:38;3.50;;;1.70;;
59366;SDS011;45163;47.690;11.770;2022-09-09T06:16:12;2.87;;;1.57;;
59366;SDS011;45163;47.690;11.770;2022-09-09T06:18:39;3.27;;;1.77;;
59366;SDS011;45163;47.690;11.770;2022-09-09T06:21:08;4.37;;;1.43;;
59366;SDS011;45163;47.690;11.770;2022-09-09T06:23:39;1.97;;;1.60;;
59366;SDS011;45163;47.690;11.770;2022-09-09T06:26:06;2.70;;;1.40;;
59366;SDS011;45163;47.690;11.770;2022-09-09T06:28:35;3.93;;;1.40;;
59366;SDS011;45163;47.690;11.770;2022-09-09T06:31:03;3.20;;;1.30;;
59366;SDS011;45163;47.690;11.770;2022-09-09T06:33:31;3.13;;;1.90;;
59366;SDS011;45163;47.690;11.770;2022-09-09T06:36:00;5.33;;;2.03;;
59366;SDS011;45163;47.690;11.770;2022-09-09T06:38:29;3.00;;;1.40;;
59366;SDS011;45163;47.690;11.770;2022-09-09T06:40:56;1.87;;;1.40;;
59366;SDS011;45163;47.690;11.770;2022-09-09T06:43:24;3.07;;;1.37;;
59366;SDS011;45163;47.690;11.770;2022-09-09T06:48:24;3.63;;;1.70;;
59366;SDS011;45163;47.690;11.770;2022-09-09T06:50:59;4.57;;;1.70;;
59366;SDS011;45163;47.690;11.770;2022-09-09T06:53:37;2.37;;;1.47;;
59366;SDS011;45163;47.690;11.770;2022-09-09T06:58:39;6.27;;;1.70;;
59366;SDS011;45163;47.690;11.770;2022-09-09T07:01:10;3.03;;;1.80;;
59366;SDS011;45163;47.690;11.770;2022-09-09T07:03:40;3.60;;;1.60;;
59366;SDS011;45163;47.690;11.770;2022-09-09T07:06:14;2.37;;;1.70;;
59366;SDS011;45163;47.690;11.770;2022-09-09T07:08:43;1.63;;;1.30;;
59366;SDS011;45163;47.690;11.770;2022-09-09T07:11:09;1.77;;;1.40;;
59366;SDS011;45163;47.690;11.770;2022-09-09T07:13:36;1.50;;;1.40;;
59366;SDS011;45163;47.690;11.770;2022-09-09T07:16:06;3.10;;;1.33;;
59366;SDS011;45163;47.690;11.770;2022-09-09T07:18:34;2.27;;;1.60;;
59366;SDS011;45163;47.690;11.770;2022-09-09T07:21:01;3.10;;;1.40;;
59366;SDS011;45163;47.690;11.770;2022-09-09T07:23:29;1.00;;;0.90;;
59366;SDS011;45163;47.690;11.770;2022-09-09T07:25:56;1.10;;;1.00;;
59366;SDS011;45163;47.690;11.770;2022-09-09T07:28:23;2.33;;;1.37;;
59366;SDS011;45163;47.690;11.770;2022-09-09T07:30:54;1.93;;;1.27;;
59366;SDS011;45163;47.690;11.770;2022-09-09T07:33:24;2.57;;;1.47;;
59366;SDS011;45163;47.690;11.770;2022-09-09T07:35:51;1.87;;;1.30;;
59366;SDS011;45163;47.690;11.770;2022-09-09T07:38:18;1.27;;;1.10;;
59366;SDS011;45163;47.690;11.770;2022-09-09T07:40:45;2.00;;;1.30;;
59366;SDS011;45163;47.690;11.770;2022-09-09T07:43:12;2.80;;;1.50;;
59366;SDS011;45163;47.690;11.770;2022-09-09T07:45:38;4.60;;;1.37;;
59366;SDS011;45163;47.690;11.770;2022-09-09T07:48:09;1.87;;;1.43;;
59366;SDS011;45163;47.690;11.770;2022-09-09T07:50:35;1.63;;;1.10;;
59366;SDS011;45163;47.690;11.770;2022-09-09T07:53:01;2.83;;;1.50;;
59366;SDS011;45163;47.690;11.770;2022-09-09T07:55:28;2.23;;;1.40;;
59366;SDS011;45163;47.690;11.770;2022-09-09T07:57:54;1.30;;;1.10;;
59366;SDS011;45163;47.690;11.770;2022-09-09T08:00:21;1.27;;;1.10;;
59366;SDS011;45163;47.690;11.770;2022-09-09T08:02:50;1.83;;;1.30;;
59366;SDS011;45163;47.690;11.770;2022-09-09T08:05:16;4.90;;;1.20;;
59366;SDS011;45163;47.690;11.770;2022-09-09T08:07:43;2.47;;;1.40;;
59366;SDS011;45163;47.690;11.770;2022-09-09T08:10:09;2.80;;;1.40;;
59366;SDS011;45163;47.690;11.770;2022-09-09T08:12:36;4.33;;;1.30;;
59366;SDS011;45163;47.690;11.770;2022-09-09T08:15:02;2.07;;;1.30;;
59366;SDS011;45163;47.690;11.770;2022-09-09T08:17:28;1.33;;;1.17;;
59366;SDS011;45163;47.690;11.770;2022-09-09T08:19:54;5.13;;;1.30;;
59366;SDS011;45163;47.690;11.770;2022-09-09T08:22:20;1.43;;;1.27;;
59366;SDS011;45163;47.690;11.770;2022-09-09T08:24:47;1.87;;;1.23;;
59366;SDS011;45163;47.690;11.770;2022-09-09T08:27:13;3.60;;;1.30;;
59366;SDS011;45163;47.690;11.770;2022-09-09T08:29:39;2.57;;;1.10;;
59366;SDS011;45163;47.690;11.770;2022-09-09T08:32:05;6.53;;;1.20;;
59366;SDS011;45163;47.690;11.770;2022-09-09T08:34:31;2.83;;;1.30;;
59366;SDS011;45163;47.690;11.770;2022-09-09T08:36:57;3.27;;;1.30;;
59366;SDS011;45163;47.690;11.770;2022-09-09T08:39:24;3.30;;;1.33;;
59366;SDS011;45163;47.690;11.770;2022-09-09T08:42:08;1.80;;;1.40;;
59366;SDS011;45163;47.690;11.770;2022-09-09T08:53:19;1.93;;;1.30;;
59366;SDS011;45163;47.690;11.770;2022-09-09T08:55:54;2.87;;;1.30;;
59366;SDS011;45163;47.690;11.770;2022-09-09T09:11:33;6.73;;;1.40;;
59366;SDS011;45163;47.690;11.770;2022-09-09T09:14:03;1.70;;;1.30;;
59366;SDS011;45163;47.690;11.770;2022-09-09T09:19:22;2.63;;;1.50;;
59366;SDS011;45163;47.690;11.770;2022-09-09T09:22:06;3.63;;;1.57;;
59366;SDS011;45163;47.690;11.770;2022-09-09T09:24:42;2.93;;;1.70;;
59366;SDS011;45163;47.690;11.770;2022-09-09T09:29:58;6.40;;;2.27;;
59366;SDS011;45163;47.690;11.770;2022-09-09T09:32:27;3.00;;;1.90;;
59366;SDS011;45163;47.690;11.770;2022-09-09T09:34:57;3.17;;;2.00;;
59366;SDS011;45163;47.690;11.770;2022-09-09T09:37:31;2.60;;;1.87;;
59366;SDS011;45163;47.690;11.770;2022-09-09T09:40:10;3.53;;;2.10;;
59366;SDS011;45163;47.690;11.770;2022-09-09T09:43:17;2.40;;;1.40;;
59366;SDS011;45163;47.690;11.770;2022-09-09T09:45:45;1.87;;;1.53;;
59366;SDS011;45163;47.690;11.770;2022-09-09T09:48:12;6.37;;;1.50;;
59366;SDS011;45163;47.690;11.770;2022-09-09T09:53:32;4.43;;;1.40;;
59366;SDS011;45163;47.690;11.770;2022-09-09T09:56:08;2.80;;;1.40;;
59366;SDS011;45163;47.690;11.770;2022-09-09T10:01:21;3.03;;;1.70;;
59366;SDS011;45163;47.690;11.770;2022-09-09T10:03:51;2.43;;;1.80;;
59366;SDS011;45163;47.690;11.770;2022-09-09T10:06:29;2.23;;;1.50;;
59366;SDS011;45163;47.690;11.770;2022-09-09T10:09:01;1.43;;;1.30;;
59366;SDS011;45163;47.690;11.770;2022-09-09T10:11:33;1.60;;;1.50;;
59366;SDS011;45163;47.690;11.770;2022-09-09T10:14:19;1.93;;;1.63;;
59366;SDS011;45163;47.690;11.770;2022-09-09T10:22:40;2.00;;;1.80;;
59366;SDS011;45163;47.690;11.770;2022-09-09T10:28:17;1.97;;;1.57;;
59366;SDS011;45163;47.690;11.770;2022-09-09T10:36:38;2.63;;;1.57;;
59366;SDS011;45163;47.690;11.770;2022-09-09T10:41:53;3.00;;;1.70;;
59366;SDS011;45163;47.690;11.770;2022-09-09T10:44:36;3.03;;;1.67;;
59366;SDS011;45163;47.690;11.770;2022-09-09T10:55:00;1.90;;;1.60;;
59366;SDS011;45163;47.690;11.770;2022-09-09T11:00:42;2.07;;;1.57;;
59366;SDS011;45163;47.690;11.770;2022-09-09T11:03:19;3.30;;;1.57;;
59366;SDS011;45163;47.690;11.770;2022-09-09T11:05:56;4.47;;;1.37;;
59366;SDS011;45163;47.690;11.770;2022-09-09T11:08:26;1.50;;;1.40;;
59366;SDS011;45163;47.690;11.770;2022-09-09T11:11:02;3.50;;;1.80;;
59366;SDS011;45163;47.690;11.770;2022-09-09T11:18:45;3.30;;;1.40;;
59366;SDS011;45163;47.690;11.770;2022-09-09T11:21:23;1.30;;;1.20;;
59366;SDS011;45163;47.690;11.770;2022-09-09T11:23:59;2.47;;;1.70;;
59366;SDS011;45163;47.690;11.770;2022-09-09T11:26:31;1.40;;;1.30;;
59366;SDS011;45163;47.690;11.770;2022-09-09T11:29:07;1.67;;;1.50;;
59366;SDS011;45163;47.690;11.770;2022-09-09T11:42:47;0.97;;;0.87;;
59366;SDS011;45163;47.690;11.770;2022-09-09T11:45:23;1.50;;;1.07;;
59366;SDS011;45163;47.690;11.770;2022-09-09T11:47:53;3.63;;;1.27;;
59366;SDS011;45163;47.690;11.770;2022-09-09T11:52:47;3.47;;;1.30;;
59366;SDS011;45163;47.690;11.770;2022-09-09T11:55:33;1.23;;;1.13;;
59366;SDS011;45163;47.690;11.770;2022-09-09T11:58:06;2.83;;;1.50;;
59366;SDS011;45163;47.690;11.770;2022-09-09T12:00:46;2.60;;;1.40;;
59366;SDS011;45163;47.690;11.770;2022-09-09T12:08:56;1.47;;;1.37;;
59366;SDS011;45163;47.690;11.770;2022-09-09T12:11:31;2.53;;;1.90;;
59366;SDS011;45163;47.690;11.770;2022-09-09T12:13:58;3.23;;;1.47;;
59366;SDS011;45163;47.690;11.770;2022-09-09T12:16:31;2.00;;;1.10;;
59366;SDS011;45163;47.690;11.770;2022-09-09T12:24:07;1.50;;;1.30;;
59366;SDS011;45163;47.690;11.770;2022-09-09T12:32:24;1.90;;;1.00;;
59366;SDS011;45163;47.690;11.770;2022-09-09T12:34:56;5.07;;;1.27;;
59366;SDS011;45163;47.690;11.770;2022-09-09T12:40:23;2.43;;;1.30;;
59366;SDS011;45163;47.690;11.770;2022-09-09T12:42:51;3.47;;;1.10;;
59366;SDS011;45163;47.690;11.770;2022-09-09T12:45:18;0.90;;;0.90;;
59366;SDS011;45163;47.690;11.770;2022-09-09T12:47:59;1.97;;;0.93;;
59366;SDS011;45163;47.690;11.770;2022-09-09T12:50:32;1.33;;;1.10;;
59366;SDS011;45163;47.690;11.770;2022-09-09T12:53:24;1.10;;;1.00;;
59366;SDS011;45163;47.690;11.770;2022-09-09T12:55:59;1.43;;;1.30;;
59366;SDS011;45163;47.690;11.770;2022-09-09T12:58:26;2.93;;;1.33;;
59366;SDS011;45163;47.690;11.770;2022-09-09T13:00:54;1.20;;;1.10;;
59366;SDS011;45163;47.690;11.770;2022-09-09T13:03:26;1.27;;;1.00;;
59366;SDS011;45163;47.690;11.770;2022-09-09T13:05:53;0.97;;;0.93;;
59366;SDS011;45163;47.690;11.770;2022-09-09T13:08:24;1.43;;;1.10;;
59366;SDS011;45163;47.690;11.770;2022-09-09T13:10:59;1.20;;;1.13;;
59366;SDS011;45163;47.690;11.770;2022-09-09T13:13:30;1.40;;;1.10;;
59366;SDS011;45163;47.690;11.770;2022-09-09T13:16:20;1.63;;;1.23;;
59366;SDS011;45163;47.690;11.770;2022-09-09T13:19:07;1.80;;;1.07;;
59366;SDS011;45163;47.690;11.770;2022-09-09T13:21:36;0.80;;;0.80;;
59366;SDS011;45163;47.690;11.770;2022-09-09T13:24:04;1.23;;;1.00;;
59366;SDS011;45163;47.690;11.770;2022-09-09T13:26:33;1.20;;;0.87;;
59366;SDS011;45163;47.690;11.770;2022-09-09T13:29:18;1.53;;;0.87;;
59366;SDS011;45163;47.690;11.770;2022-09-09T13:31:45;1.17;;;1.00;;
59366;SDS011;45163;47.690;11.770;2022-09-09T13:34:26;1.00;;;1.00;;
59366;SDS011;45163;47.690;11.770;2022-09-09T13:36:56;1.40;;;1.30;;
59366;SDS011;45163;47.690;11.770;2022-09-09T13:39:32;2.30;;;0.80;;
59366;SDS011;45163;47.690;11.770;2022-09-09T13:42:00;2.03;;;1.20;;
59366;SDS011;45163;47.690;11.770;2022-09-09T13:44:30;2.00;;;1.00;;
59366;SDS011;45163;47.690;11.770;2022-09-09T13:49:46;1.27;;;1.17;;
59366;SDS011;45163;47.690;11.770;2022-09-09T13:52:13;2.87;;;1.10;;
59366;SDS011;45163;47.690;11.770;2022-09-09T13:54:51;1.10;;;1.00;;
59366;SDS011;45163;47.690;11.770;2022-09-09T13:57:24;1.20;;;1.10;;
59366;SDS011;45163;47.690;11.770;2022-09-09T13:59:51;1.43;;;1.20;;
59366;SDS011;45163;47.690;11.770;2022-09-09T14:02:20;2.00;;;1.30;;
59366;SDS011;45163;47.690;11.770;2022-09-09T14:04:48;2.37;;;1.10;;
59366;SDS011;45163;47.690;11.770;2022-09-09T14:07:16;0.93;;;0.90;;
59366;SDS011;45163;47.690;11.770;2022-09-09T14:09:43;2.37;;;1.00;;
59366;SDS011;45163;47.690;11.770;2022-09-09T14:12:11;1.30;;;1.20;;
59366;SDS011;45163;47.690;11.770;2022-09-09T14:14:38;2.60;;;1.20;;
59366;SDS011;45163;47.690;11.770;2022-09-09T14:17:04;2.50;;;1.13;;
59366;SDS011;45163;47.690;11.770;2022-09-09T14:19:30;2.63;;;1.17;;
59366;SDS011;45163;47.690;11.770;2022-09-09T14:21:57;1.77;;;0.90;;
59366;SDS011;45163;47.690;11.770;2022-09-09T14:24:24;1.07;;;0.97;;
59366;SDS011;45163;47.690;11.770;2022-09-09T14:26:51;1.60;;;1.07;;
59366;SDS011;45163;47.690;11.770;2022-09-09T14:29:17;1.00;;;0.90;;
59366;SDS011;45163;47.690;11.770;2022-09-09T14:31:43;2.33;;;1.10;;
59366;SDS011;45163;47.690;11.770;2022-09-09T14:34:09;1.23;;;0.97;;
59366;SDS011;45163;47.690;11.770;2022-09-09T14:36:39;1.30;;;1.20;;
59366;SDS011;45163;47.690;11.770;2022-09-09T14:39:06;0.70;;;0.70;;
59366;SDS011;45163;47.690;11.770;2022-09-09T14:41:32;1.20;;;0.90;;
59366;SDS011;45163;47.690;11.770;2022-09-09T14:43:58;3.63;;;1.10;;
59366;SDS011;45163;47.690;11.770;2022-09-09T14:46:25;1.17;;;1.00;;
59366;SDS011;45163;47.690;11.770;2022-09-09T14:48:54;1.00;;;1.00;;
59366;SDS011;45163;47.690;11.770;2022-09-09T14:51:21;1.67;;;1.17;;
59366;SDS011;45163;47.690;11.770;2022-09-09T14:53:52;2.37;;;1.30;;
59366;SDS011;45163;47.690;11.770;2022-09-09T14:56:20;1.47;;;1.30;;
59366;SDS011;45163;47.690;11.770;2022-09-09T14:58:48;4.30;;;1.20;;
59366;SDS011;45163;47.690;11.770;2022-09-09T15:01:15;2.90;;;1.60;;
59366;SDS011;45163;47.690;11.770;2022-09-09T15:03:49;2.30;;;1.23;;
59366;SDS011;45163;47.690;11.770;2022-09-09T15:06:17;1.47;;;1.13;;
59366;SDS011;45163;47.690;11.770;2022-09-09T15:08:43;1.50;;;1.20;;
59366;SDS011;45163;47.690;11.770;2022-09-09T15:11:11;1.97;;;1.07;;
59366;SDS011;45163;47.690;11.770;2022-09-09T15:13:38;1.97;;;1.10;;
59366;SDS011;45163;47.690;11.770;2022-09-09T15:18:37;2.40;;;1.30;;
59366;SDS011;45163;47.690;11.770;2022-09-09T15:21:09;1.93;;;1.60;;
59366;SDS011;45163;47.690;11.770;2022-09-09T15:23:36;1.17;;;0.97;;
59366;SDS011;45163;47.690;11.770;2022-09-09T15:26:03;3.87;;;1.30;;
59366;SDS011;45163;47.690;11.770;2022-09-09T15:28:31;3.93;;;1.30;;
59366;SDS011;45163;47.690;11.770;2022-09-09T15:31:07;1.27;;;1.10;;
59366;SDS011;45163;47.690;11.770;2022-09-09T15:33:35;2.67;;;1.33;;
59366;SDS011;45163;47.690;11.770;2022-09-09T15:36:14;1.20;;;1.10;;
59366;SDS011;45163;47.690;11.770;2022-09-09T15:38:50;1.83;;;1.07;;
59366;SDS011;45163;47.690;11.770;2022-09-09T15:41:18;0.90;;;0.90;;
59366;SDS011;45163;47.690;11.770;2022-09-09T15:43:46;1.20;;;1.10;;
59366;SDS011;45163;47.690;11.770;2022-09-09T15:48:42;1.57;;;1.20;;
59366;SDS011;45163;47.690;11.770;2022-09-09T15:51:09;2.50;;;1.10;;
59366;SDS011;45163;47.690;11.770;2022-09-09T15:53:37;2.47;;;1.10;;
59366;SDS011;45163;47.690;11.770;2022-09-09T15:56:05;2.83;;;1.03;;
59366;SDS011;45163;47.690;11.770;2022-09-09T15:58:34;1.47;;;1.20;;
59366;SDS011;45163;47.690;11.770;2022-09-09T16:01:05;2.93;;;1.23;;
59366;SDS011;45163;47.690;11.770;2022-09-09T16:03:39;2.03;;;1.33;;
59366;SDS011;45163;47.690;11.770;2022-09-09T16:06:12;2.10;;;1.33;;
59366;SDS011;45163;47.690;11.770;2022-09-09T16:08:43;2.70;;;1.70;;
59366;SDS011;45163;47.690;11.770;2022-09-09T16:11:11;4.30;;;2.13;;
59366;SDS011;45163;47.690;11.770;2022-09-09T16:13:43;2.20;;;1.80;;
59366;SDS011;45163;47.690;11.770;2022-09-09T16:16:13;3.83;;;1.60;;
59366;SDS011;45163;47.690;11.770;2022-09-09T16:18:41;3.27;;;1.60;;
59366;SDS011;45163;47.690;11.770;2022-09-09T16:21:17;2.43;;;1.40;;
59366;SDS011;45163;47.690;11.770;2022-09-09T16:23:50;2.67;;;1.80;;
59366;SDS011;45163;47.690;11.770;2022-09-09T16:26:18;1.90;;;1.40;;
59366;SDS011;45163;47.690;11.770;2022-09-09T16:28:45;3.90;;;1.63;;
59366;SDS011;45163;47.690;11.770;2022-09-09T16:31:13;2.27;;;1.40;;
59366;SDS011;45163;47.690;11.770;2022-09-09T16:33:43;2.13;;;1.47;;
59366;SDS011;45163;47.690;11.770;2022-09-09T16:36:14;2.27;;;1.70;;
59366;SDS011;45163;47.690;11.770;2022-09-09T16:38:42;1.50;;;1.30;;
59366;SDS011;45163;47.690;11.770;2022-09-09T16:41:11;1.40;;;1.30;;
59366;SDS011;45163;47.690;11.770;2022-09-09T16:43:38;1.67;;;1.30;;
59366;SDS011;45163;47.690;11.770;2022-09-09T16:46:11;2.90;;;1.23;;
59366;SDS011;45163;47.690;11.770;2022-09-09T16:48:42;2.60;;;1.50;;
59366;SDS011;45163;47.690;11.770;2022-09-09T16:51:29;2.47;;;1.47;;
59366;SDS011;45163;47.690;11.770;2022-09-09T16:54:00;2.17;;;1.40;;
59366;SDS011;45163;47.690;11.770;2022-09-09T16:56:29;2.43;;;1.30;;
59366;SDS011;45163;47.690;11.770;2022-09-09T16:59:06;1.93;;;1.40;;
59366;SDS011;45163;47.690;11.770;2022-09-09T17:01:35;4.00;;;1.30;;
59366;SDS011;45163;47.690;11.770;2022-09-09T17:04:07;4.23;;;1.30;;
59366;SDS011;45163;47.690;11.770;2022-09-09T17:06:35;1.50;;;1.30;;
59366;SDS011;45163;47.690;11.770;2022-09-09T17:09:04;3.07;;;1.40;;
59366;SDS011;45163;47.690;11.770;2022-09-09T17:11:35;3.27;;;1.17;;
59366;SDS011;45163;47.690;11.770;2022-09-09T17:14:02;2.37;;;1.20;;
59366;SDS011;45163;47.690;11.770;2022-09-09T17:16:30;1.30;;;1.20;;
59366;SDS011;45163;47.690;11.770;2022-09-09T17:18:57;1.30;;;1.00;;
59366;SDS011;45163;47.690;11.770;2022-09-09T17:21:27;1.43;;;1.30;;
59366;SDS011;45163;47.690;11.770;2022-09-09T17:23:57;1.20;;;1.10;;
59366;SDS011;45163;47.690;11.770;2022-09-09T17:26:25;3.90;;;1.30;;
59366;SDS011;45163;47.690;11.770;2022-09-09T17:28:56;2.27;;;1.33;;
59366;SDS011;45163;47.690;11.770;2022-09-09T17:31:24;2.03;;;1.20;;
59366;SDS011;45163;47.690;11.770;2022-09-09T17:33:51;1.47;;;1.10;;
59366;SDS011;45163;47.690;11.770;2022-09-09T17:36:31;1.37;;;1.27;;